sensor_id;sensor_type;location;lat;lon;timestamp;temperature;humidity
37340;DHT22;23223;51.006;7.610;2022-07-22T00:00:54;18.20;99.90
37340;DHT22;23223;51.006;7.610;2022-07-22T00:03:20;18.20;99.90
37340;DHT22;23223;51.006;7.610;2022-07-22T00:05:46;18.20;99.90
37340;DHT22;23223;51.006;7.610;2022-07-22T00:08:11;18.00;99.90
37340;DHT22;23223;51.006;7.610;2022-07-22T00:10:37;17.90;99.90
37340;DHT22;23223;51.006;7.610;2022-07-22T00:13:03;18.00;99.90
37340;DHT22;23223;51.006;7.610;2022-07-22T00:15:28;18.10;99.90
37340;DHT22;23223;51.006;7.610;2022-07-22T00:17:54;18.10;99.90
37340;DHT22;23223;51.006;7.610;2022-07-22T00:20:20;18.30;99.90
37340;DHT22;23223;51.006;7.610;2022-07-22T00:22:45;18.30;99.90
37340;DHT22;23223;51.006;7.610;2022-07-22T00:25:11;18.10;99.90
37340;DHT22;23223;51.006;7.610;2022-07-22T00:27:36;18.10;99.90
37340;DHT22;23223;51.006;7.610;2022-07-22T00:30:03;18.00;99.90
37340;DHT22;23223;51.006;7.610;2022-07-22T00:32:29;18.00;99.90
37340;DHT22;23223;51.006;7.610;2022-07-22T00:34:54;17.90;99.90
37340;DHT22;23223;51.006;7.610;2022-07-22T00:37:20;17.90;99.90
37340;DHT22;23223;51.006;7.610;2022-07-22T00:39:46;17.90;99.90
37340;DHT22;23223;51.006;7.610;2022-07-22T00:42:13;18.10;99.90
37340;DHT22;23223;51.006;7.610;2022-07-22T00:44:39;18.20;99.90
37340;DHT22;23223;51.006;7.610;2022-07-22T00:47:05;18.30;99.90
37340;DHT22;23223;51.006;7.610;2022-07-22T00:49:31;18.40;99.90
37340;DHT22;23223;51.006;7.610;2022-07-22T00:51:57;18.30;99.90
37340;DHT22;23223;51.006;7.610;2022-07-22T00:54:22;18.00;99.90
37340;DHT22;23223;51.006;7.610;2022-07-22T00:56:48;18.00;99.90
37340;DHT22;23223;51.006;7.610;2022-07-22T00:59:14;18.10;99.90
37340;DHT22;23223;51.006;7.610;2022-07-22T01:01:40;18.10;99.90
37340;DHT22;23223;51.006;7.610;2022-07-22T01:04:05;18.10;99.90
37340;DHT22;23223;51.006;7.610;2022-07-22T01:06:31;18.10;99.90
37340;DHT22;23223;51.006;7.610;2022-07-22T01:08:57;18.00;99.90
37340;DHT22;23223;51.006;7.610;2022-07-22T01:11:24;18.10;99.90
37340;DHT22;23223;51.006;7.610;2022-07-22T01:13:50;18.30;99.90
37340;DHT22;23223;51.006;7.610;2022-07-22T01:16:17;18.30;99.90
37340;DHT22;23223;51.006;7.610;2022-07-22T01:18:43;18.30;99.90
37340;DHT22;23223;51.006;7.610;2022-07-22T01:21:10;18.10;99.90
37340;DHT22;23223;51.006;7.610;2022-07-22T01:23:36;18.00;99.90
37340;DHT22;23223;51.006;7.610;2022-07-22T01:26:02;17.90;99.90
37340;DHT22;23223;51.006;7.610;2022-07-22T01:28:28;18.00;99.90
37340;DHT22;23223;51.006;7.610;2022-07-22T01:30:54;17.90;99.90
37340;DHT22;23223;51.006;7.610;2022-07-22T01:33:21;17.70;99.90
37340;DHT22;23223;51.006;7.610;2022-07-22T01:35:47;17.60;99.90
37340;DHT22;23223;51.006;7.610;2022-07-22T01:38:14;17.60;99.90
37340;DHT22;23223;51.006;7.610;2022-07-22T01:40:41;17.60;99.90
37340;DHT22;23223;51.006;7.610;2022-07-22T01:43:08;17.70;99.90
37340;DHT22;23223;51.006;7.610;2022-07-22T01:45:33;17.80;99.90
37340;DHT22;23223;51.006;7.610;2022-07-22T01:47:59;17.70;99.90
37340;DHT22;23223;51.006;7.610;2022-07-22T01:50:25;17.80;99.90
37340;DHT22;23223;51.006;7.610;2022-07-22T01:52:51;17.80;99.90
37340;DHT22;23223;51.006;7.610;2022-07-22T01:55:17;17.90;99.90
37340;DHT22;23223;51.006;7.610;2022-07-22T01:57:43;18.10;99.90
37340;DHT22;23223;51.006;7.610;2022-07-22T02:00:09;18.20;99.90
37340;DHT22;23223;51.006;7.610;2022-07-22T02:02:37;18.30;99.90
37340;DHT22;23223;51.006;7.610;2022-07-22T02:05:04;18.40;99.90
37340;DHT22;23223;51.006;7.610;2022-07-22T02:07:30;18.30;99.90
37340;DHT22;23223;51.006;7.610;2022-07-22T02:09:55;18.30;99.90
37340;DHT22;23223;51.006;7.610;2022-07-22T02:12:21;18.40;99.90
37340;DHT22;23223;51.006;7.610;2022-07-22T02:14:47;18.30;99.90
37340;DHT22;23223;51.006;7.610;2022-07-22T02:17:13;18.40;99.90
37340;DHT22;23223;51.006;7.610;2022-07-22T02:19:39;18.40;99.90
37340;DHT22;23223;51.006;7.610;2022-07-22T02:22:05;18.40;99.90
37340;DHT22;23223;51.006;7.610;2022-07-22T02:24:31;18.30;99.90
37340;DHT22;23223;51.006;7.610;2022-07-22T02:26:57;18.30;99.90
37340;DHT22;23223;51.006;7.610;2022-07-22T02:29:22;18.20;99.90
37340;DHT22;23223;51.006;7.610;2022-07-22T02:31:48;18.00;99.90
37340;DHT22;23223;51.006;7.610;2022-07-22T02:34:14;17.90;99.90
37340;DHT22;23223;51.006;7.610;2022-07-22T02:36:39;17.90;99.90
37340;DHT22;23223;51.006;7.610;2022-07-22T02:39:05;17.80;99.90
37340;DHT22;23223;51.006;7.610;2022-07-22T02:41:31;17.70;99.90
37340;DHT22;23223;51.006;7.610;2022-07-22T02:43:56;17.70;99.90
37340;DHT22;23223;51.006;7.610;2022-07-22T02:46:23;17.50;99.90
37340;DHT22;23223;51.006;7.610;2022-07-22T02:48:49;17.30;99.90
37340;DHT22;23223;51.006;7.610;2022-07-22T02:51:14;17.10;99.90
37340;DHT22;23223;51.006;7.610;2022-07-22T02:53:40;17.10;99.90
37340;DHT22;23223;51.006;7.610;2022-07-22T02:56:05;17.10;99.90
37340;DHT22;23223;51.006;7.610;2022-07-22T02:58:31;17.00;99.90
37340;DHT22;23223;51.006;7.610;2022-07-22T03:00:56;17.00;99.90
37340;DHT22;23223;51.006;7.610;2022-07-22T03:03:22;16.80;99.90
37340;DHT22;23223;51.006;7.610;2022-07-22T03:05:49;16.70;99.90
37340;DHT22;23223;51.006;7.610;2022-07-22T03:08:14;16.70;99.90
37340;DHT22;23223;51.006;7.610;2022-07-22T03:10:40;16.70;99.90
37340;DHT22;23223;51.006;7.610;2022-07-22T03:13:05;16.70;99.90
37340;DHT22;23223;51.006;7.610;2022-07-22T03:15:31;16.80;99.90
37340;DHT22;23223;51.006;7.610;2022-07-22T03:17:56;16.70;99.90
37340;DHT22;23223;51.006;7.610;2022-07-22T03:20:22;16.80;99.90
37340;DHT22;23223;51.006;7.610;2022-07-22T03:22:47;16.90;99.90
37340;DHT22;23223;51.006;7.610;2022-07-22T03:25:13;17.00;99.90
37340;DHT22;23223;51.006;7.610;2022-07-22T03:27:38;17.00;99.90
37340;DHT22;23223;51.006;7.610;2022-07-22T03:30:05;16.90;99.90
37340;DHT22;23223;51.006;7.610;2022-07-22T03:32:31;16.90;99.90
37340;DHT22;23223;51.006;7.610;2022-07-22T03:34:57;16.90;99.90
37340;DHT22;23223;51.006;7.610;2022-07-22T03:37:22;16.80;99.90
37340;DHT22;23223;51.006;7.610;2022-07-22T03:39:48;16.80;99.90
37340;DHT22;23223;51.006;7.610;2022-07-22T03:42:14;16.70;99.90
37340;DHT22;23223;51.006;7.610;2022-07-22T03:44:39;16.70;99.90
37340;DHT22;23223;51.006;7.610;2022-07-22T03:47:05;16.70;99.90
37340;DHT22;23223;51.006;7.610;2022-07-22T03:49:31;16.70;99.90
37340;DHT22;23223;51.006;7.610;2022-07-22T03:51:57;16.60;99.90
37340;DHT22;23223;51.006;7.610;2022-07-22T03:54:22;16.50;99.90
37340;DHT22;23223;51.006;7.610;2022-07-22T03:56:48;16.50;99.90
37340;DHT22;23223;51.006;7.610;2022-07-22T03:59:15;16.60;99.90
37340;DHT22;23223;51.006;7.610;2022-07-22T04:01:40;16.80;99.90
37340;DHT22;23223;51.006;7.610;2022-07-22T04:04:06;17.10;99.90
37340;DHT22;23223;51.006;7.610;2022-07-22T04:06:32;17.20;99.90
37340;DHT22;23223;51.006;7.610;2022-07-22T04:08:58;17.20;99.90
37340;DHT22;23223;51.006;7.610;2022-07-22T04:11:23;17.20;99.90
37340;DHT22;23223;51.006;7.610;2022-07-22T04:13:49;17.20;99.90
37340;DHT22;23223;51.006;7.610;2022-07-22T04:16:14;17.10;99.90
37340;DHT22;23223;51.006;7.610;2022-07-22T04:18:40;16.90;99.90
37340;DHT22;23223;51.006;7.610;2022-07-22T04:21:05;16.80;99.90
37340;DHT22;23223;51.006;7.610;2022-07-22T04:23:31;16.80;99.90
37340;DHT22;23223;51.006;7.610;2022-07-22T04:25:57;16.80;99.90
37340;DHT22;23223;51.006;7.610;2022-07-22T04:28:22;17.00;99.90
37340;DHT22;23223;51.006;7.610;2022-07-22T04:30:48;17.30;99.90
37340;DHT22;23223;51.006;7.610;2022-07-22T04:33:13;17.50;99.90
37340;DHT22;23223;51.006;7.610;2022-07-22T04:35:39;17.70;99.90
37340;DHT22;23223;51.006;7.610;2022-07-22T04:38:04;17.70;99.90
37340;DHT22;23223;51.006;7.610;2022-07-22T04:40:30;17.60;99.90
37340;DHT22;23223;51.006;7.610;2022-07-22T04:42:55;17.50;99.90
37340;DHT22;23223;51.006;7.610;2022-07-22T04:45:21;17.40;99.90
37340;DHT22;23223;51.006;7.610;2022-07-22T04:47:46;17.30;99.90
37340;DHT22;23223;51.006;7.610;2022-07-22T04:50:12;17.10;99.90
37340;DHT22;23223;51.006;7.610;2022-07-22T04:52:37;17.00;99.90
37340;DHT22;23223;51.006;7.610;2022-07-22T04:55:03;16.90;99.90
37340;DHT22;23223;51.006;7.610;2022-07-22T04:57:29;16.90;99.90
37340;DHT22;23223;51.006;7.610;2022-07-22T04:59:55;16.80;99.90
37340;DHT22;23223;51.006;7.610;2022-07-22T05:02:20;16.70;99.90
37340;DHT22;23223;51.006;7.610;2022-07-22T05:04:46;16.80;99.90
37340;DHT22;23223;51.006;7.610;2022-07-22T05:07:11;16.70;99.90
37340;DHT22;23223;51.006;7.610;2022-07-22T05:09:37;16.50;99.90
37340;DHT22;23223;51.006;7.610;2022-07-22T05:12:03;16.50;99.90
37340;DHT22;23223;51.006;7.610;2022-07-22T05:14:29;16.40;99.90
37340;DHT22;23223;51.006;7.610;2022-07-22T05:16:55;16.40;99.90
37340;DHT22;23223;51.006;7.610;2022-07-22T05:19:20;16.40;99.90
37340;DHT22;23223;51.006;7.610;2022-07-22T05:21:46;16.40;99.90
37340;DHT22;23223;51.006;7.610;2022-07-22T05:24:12;16.50;99.90
37340;DHT22;23223;51.006;7.610;2022-07-22T05:26:38;16.60;99.90
37340;DHT22;23223;51.006;7.610;2022-07-22T05:29:03;16.60;99.90
37340;DHT22;23223;51.006;7.610;2022-07-22T05:31:29;16.80;99.90
37340;DHT22;23223;51.006;7.610;2022-07-22T05:33:55;17.00;99.90
37340;DHT22;23223;51.006;7.610;2022-07-22T05:36:20;17.00;99.90
37340;DHT22;23223;51.006;7.610;2022-07-22T05:38:46;17.20;99.90
37340;DHT22;23223;51.006;7.610;2022-07-22T05:41:12;17.20;99.90
37340;DHT22;23223;51.006;7.610;2022-07-22T05:43:37;17.20;99.90
37340;DHT22;23223;51.006;7.610;2022-07-22T05:46:03;17.20;99.90
37340;DHT22;23223;51.006;7.610;2022-07-22T05:48:29;17.30;99.90
37340;DHT22;23223;51.006;7.610;2022-07-22T05:50:54;17.40;99.90
37340;DHT22;23223;51.006;7.610;2022-07-22T05:53:20;17.40;99.90
37340;DHT22;23223;51.006;7.610;2022-07-22T05:55:45;17.40;99.90
37340;DHT22;23223;51.006;7.610;2022-07-22T05:58:11;17.30;99.90
37340;DHT22;23223;51.006;7.610;2022-07-22T06:00:37;17.40;99.90
37340;DHT22;23223;51.006;7.610;2022-07-22T06:03:04;17.50;99.90
37340;DHT22;23223;51.006;7.610;2022-07-22T06:05:31;17.40;99.90
37340;DHT22;23223;51.006;7.610;2022-07-22T06:07:56;17.40;99.90
37340;DHT22;23223;51.006;7.610;2022-07-22T06:10:22;17.30;99.90
37340;DHT22;23223;51.006;7.610;2022-07-22T06:12:47;17.20;99.90
37340;DHT22;23223;51.006;7.610;2022-07-22T06:15:13;17.20;99.90
37340;DHT22;23223;51.006;7.610;2022-07-22T06:17:39;17.20;99.90
37340;DHT22;23223;51.006;7.610;2022-07-22T06:20:05;17.30;99.90
37340;DHT22;23223;51.006;7.610;2022-07-22T06:22:30;17.30;99.90
37340;DHT22;23223;51.006;7.610;2022-07-22T06:24:56;17.40;99.90
37340;DHT22;23223;51.006;7.610;2022-07-22T06:27:21;17.50;99.90
37340;DHT22;23223;51.006;7.610;2022-07-22T06:29:47;17.60;99.90
37340;DHT22;23223;51.006;7.610;2022-07-22T06:32:12;17.60;99.90
37340;DHT22;23223;51.006;7.610;2022-07-22T06:34:38;17.80;99.90
37340;DHT22;23223;51.006;7.610;2022-07-22T06:37:03;18.00;99.90
37340;DHT22;23223;51.006;7.610;2022-07-22T06:39:29;18.00;99.90
37340;DHT22;23223;51.006;7.610;2022-07-22T06:41:55;18.00;99.90
37340;DHT22;23223;51.006;7.610;2022-07-22T06:44:20;18.10;99.90
37340;DHT22;23223;51.006;7.610;2022-07-22T06:46:46;18.10;99.90
37340;DHT22;23223;51.006;7.610;2022-07-22T06:49:11;18.30;99.90
37340;DHT22;23223;51.006;7.610;2022-07-22T06:51:37;18.30;99.90
37340;DHT22;23223;51.006;7.610;2022-07-22T06:54:03;18.30;99.90
37340;DHT22;23223;51.006;7.610;2022-07-22T06:56:28;18.10;99.90
37340;DHT22;23223;51.006;7.610;2022-07-22T06:58:54;18.00;99.90
37340;DHT22;23223;51.006;7.610;2022-07-22T07:01:19;18.00;99.90
37340;DHT22;23223;51.006;7.610;2022-07-22T07:03:45;17.90;99.90
37340;DHT22;23223;51.006;7.610;2022-07-22T07:06:11;17.90;99.90
37340;DHT22;23223;51.006;7.610;2022-07-22T07:08:40;17.90;99.90
37340;DHT22;23223;51.006;7.610;2022-07-22T07:11:06;17.90;99.90
37340;DHT22;23223;51.006;7.610;2022-07-22T07:13:32;17.90;99.90
37340;DHT22;23223;51.006;7.610;2022-07-22T07:15:58;18.00;99.90
37340;DHT22;23223;51.006;7.610;2022-07-22T07:18:23;18.20;99.90
37340;DHT22;23223;51.006;7.610;2022-07-22T07:20:49;18.30;99.90
37340;DHT22;23223;51.006;7.610;2022-07-22T07:23:15;18.40;99.90
37340;DHT22;23223;51.006;7.610;2022-07-22T07:25:41;18.50;99.90
37340;DHT22;23223;51.006;7.610;2022-07-22T07:28:06;18.50;99.90
37340;DHT22;23223;51.006;7.610;2022-07-22T07:30:32;18.40;99.90
37340;DHT22;23223;51.006;7.610;2022-07-22T07:32:58;18.60;99.90
37340;DHT22;23223;51.006;7.610;2022-07-22T07:35:26;18.80;99.90
37340;DHT22;23223;51.006;7.610;2022-07-22T07:37:52;18.80;99.90
37340;DHT22;23223;51.006;7.610;2022-07-22T07:40:18;18.80;99.90
37340;DHT22;23223;51.006;7.610;2022-07-22T07:42:44;18.80;99.90
37340;DHT22;23223;51.006;7.610;2022-07-22T07:45:10;18.90;99.90
37340;DHT22;23223;51.006;7.610;2022-07-22T07:47:35;18.80;99.90
37340;DHT22;23223;51.006;7.610;2022-07-22T07:50:02;18.80;99.90
37340;DHT22;23223;51.006;7.610;2022-07-22T07:52:28;18.90;99.90
37340;DHT22;23223;51.006;7.610;2022-07-22T07:54:53;19.20;99.90
37340;DHT22;23223;51.006;7.610;2022-07-22T07:57:21;19.60;99.90
37340;DHT22;23223;51.006;7.610;2022-07-22T07:59:47;19.80;99.90
37340;DHT22;23223;51.006;7.610;2022-07-22T08:02:12;19.90;99.90
37340;DHT22;23223;51.006;7.610;2022-07-22T08:04:38;19.80;99.90
37340;DHT22;23223;51.006;7.610;2022-07-22T08:07:07;19.70;99.90
37340;DHT22;23223;51.006;7.610;2022-07-22T08:09:33;19.60;99.90
37340;DHT22;23223;51.006;7.610;2022-07-22T08:12:00;19.80;99.90
37340;DHT22;23223;51.006;7.610;2022-07-22T08:14:26;19.90;99.90
37340;DHT22;23223;51.006;7.610;2022-07-22T08:16:52;20.10;99.90
37340;DHT22;23223;51.006;7.610;2022-07-22T08:19:18;20.10;99.90
37340;DHT22;23223;51.006;7.610;2022-07-22T08:21:43;19.90;99.90
37340;DHT22;23223;51.006;7.610;2022-07-22T08:24:10;19.80;99.90
37340;DHT22;23223;51.006;7.610;2022-07-22T08:26:36;19.60;99.90
37340;DHT22;23223;51.006;7.610;2022-07-22T08:29:02;19.70;99.90
37340;DHT22;23223;51.006;7.610;2022-07-22T08:31:28;19.60;99.90
37340;DHT22;23223;51.006;7.610;2022-07-22T08:33:54;19.60;99.90
37340;DHT22;23223;51.006;7.610;2022-07-22T08:36:19;19.70;99.90
37340;DHT22;23223;51.006;7.610;2022-07-22T08:38:45;19.90;99.90
37340;DHT22;23223;51.006;7.610;2022-07-22T08:41:11;20.00;99.90
37340;DHT22;23223;51.006;7.610;2022-07-22T08:43:38;19.90;99.90
37340;DHT22;23223;51.006;7.610;2022-07-22T08:46:07;20.00;99.90
37340;DHT22;23223;51.006;7.610;2022-07-22T08:48:32;20.10;99.90
37340;DHT22;23223;51.006;7.610;2022-07-22T08:50:58;20.20;99.90
37340;DHT22;23223;51.006;7.610;2022-07-22T08:53:23;20.20;99.90
37340;DHT22;23223;51.006;7.610;2022-07-22T08:55:49;20.10;99.90
37340;DHT22;23223;51.006;7.610;2022-07-22T08:58:15;20.10;99.90
37340;DHT22;23223;51.006;7.610;2022-07-22T09:00:42;20.30;99.90
37340;DHT22;23223;51.006;7.610;2022-07-22T09:03:22;20.60;99.90
37340;DHT22;23223;51.006;7.610;2022-07-22T09:05:49;20.80;99.90
37340;DHT22;23223;51.006;7.610;2022-07-22T09:08:15;20.90;99.90
37340;DHT22;23223;51.006;7.610;2022-07-22T09:10:41;21.10;99.90
37340;DHT22;23223;51.006;7.610;2022-07-22T09:13:08;21.20;99.90
37340;DHT22;23223;51.006;7.610;2022-07-22T09:15:39;21.30;99.90
37340;DHT22;23223;51.006;7.610;2022-07-22T09:18:10;21.20;99.90
37340;DHT22;23223;51.006;7.610;2022-07-22T09:20:36;21.10;99.90
37340;DHT22;23223;51.006;7.610;2022-07-22T09:23:09;21.10;99.90
37340;DHT22;23223;51.006;7.610;2022-07-22T09:25:36;20.90;99.90
37340;DHT22;23223;51.006;7.610;2022-07-22T09:30:31;20.90;99.90
37340;DHT22;23223;51.006;7.610;2022-07-22T09:32:57;20.90;99.90
37340;DHT22;23223;51.006;7.610;2022-07-22T09:35:23;20.80;99.90
37340;DHT22;23223;51.006;7.610;2022-07-22T09:38:01;20.80;99.90
37340;DHT22;23223;51.006;7.610;2022-07-22T09:40:33;21.10;99.90
37340;DHT22;23223;51.006;7.610;2022-07-22T09:43:07;21.20;99.90
37340;DHT22;23223;51.006;7.610;2022-07-22T09:45:47;21.40;99.90
37340;DHT22;23223;51.006;7.610;2022-07-22T09:48:14;21.30;99.90
37340;DHT22;23223;51.006;7.610;2022-07-22T09:50:40;21.10;99.90
37340;DHT22;23223;51.006;7.610;2022-07-22T09:53:05;21.00;99.90
37340;DHT22;23223;51.006;7.610;2022-07-22T09:55:31;20.80;99.90
37340;DHT22;23223;51.006;7.610;2022-07-22T09:57:59;20.80;99.90
37340;DHT22;23223;51.006;7.610;2022-07-22T10:00:26;21.00;99.90
37340;DHT22;23223;51.006;7.610;2022-07-22T10:02:54;21.20;99.90
37340;DHT22;23223;51.006;7.610;2022-07-22T10:05:27;21.10;99.90
37340;DHT22;23223;51.006;7.610;2022-07-22T10:07:53;21.20;99.90
37340;DHT22;23223;51.006;7.610;2022-07-22T10:10:22;21.30;99.90
37340;DHT22;23223;51.006;7.610;2022-07-22T10:12:49;21.30;99.90
37340;DHT22;23223;51.006;7.610;2022-07-22T10:15:16;21.50;99.90
37340;DHT22;23223;51.006;7.610;2022-07-22T10:17:45;21.60;99.90
37340;DHT22;23223;51.006;7.610;2022-07-22T10:20:12;21.80;99.90
37340;DHT22;23223;51.006;7.610;2022-07-22T10:25:11;21.80;99.90
37340;DHT22;23223;51.006;7.610;2022-07-22T10:27:55;22.00;99.90
37340;DHT22;23223;51.006;7.610;2022-07-22T10:30:27;21.90;99.90
37340;DHT22;23223;51.006;7.610;2022-07-22T10:33:16;21.90;99.90
37340;DHT22;23223;51.006;7.610;2022-07-22T10:36:02;21.70;99.90
37340;DHT22;23223;51.006;7.610;2022-07-22T10:38:30;21.80;99.90
37340;DHT22;23223;51.006;7.610;2022-07-22T10:41:00;22.00;99.90
37340;DHT22;23223;51.006;7.610;2022-07-22T10:43:30;22.20;99.90
37340;DHT22;23223;51.006;7.610;2022-07-22T10:46:01;22.70;99.90
37340;DHT22;23223;51.006;7.610;2022-07-22T10:51:10;23.10;99.90
37340;DHT22;23223;51.006;7.610;2022-07-22T10:56:30;23.70;99.90
37340;DHT22;23223;51.006;7.610;2022-07-22T10:59:07;23.60;99.90
37340;DHT22;23223;51.006;7.610;2022-07-22T11:01:34;23.50;99.90
37340;DHT22;23223;51.006;7.610;2022-07-22T11:04:26;23.40;99.90
37340;DHT22;23223;51.006;7.610;2022-07-22T11:06:54;23.20;99.90
37340;DHT22;23223;51.006;7.610;2022-07-22T11:09:22;23.20;99.90
37340;DHT22;23223;51.006;7.610;2022-07-22T11:11:53;23.00;99.90
37340;DHT22;23223;51.006;7.610;2022-07-22T11:16:46;23.10;99.90
37340;DHT22;23223;51.006;7.610;2022-07-22T11:19:11;23.40;99.90
37340;DHT22;23223;51.006;7.610;2022-07-22T11:21:37;24.10;99.90
37340;DHT22;23223;51.006;7.610;2022-07-22T11:24:06;24.60;99.90
37340;DHT22;23223;51.006;7.610;2022-07-22T11:26:47;24.60;99.90
37340;DHT22;23223;51.006;7.610;2022-07-22T11:29:33;24.20;99.90
37340;DHT22;23223;51.006;7.610;2022-07-22T11:32:00;24.50;99.90
37340;DHT22;23223;51.006;7.610;2022-07-22T11:34:26;24.80;99.90
37340;DHT22;23223;51.006;7.610;2022-07-22T11:36:53;24.80;99.90
37340;DHT22;23223;51.006;7.610;2022-07-22T11:39:21;24.70;99.90
37340;DHT22;23223;51.006;7.610;2022-07-22T11:41:47;24.60;99.90
37340;DHT22;23223;51.006;7.610;2022-07-22T11:44:21;24.40;99.90
37340;DHT22;23223;51.006;7.610;2022-07-22T11:46:47;24.50;99.90
37340;DHT22;23223;51.006;7.610;2022-07-22T11:49:15;24.80;99.90
37340;DHT22;23223;51.006;7.610;2022-07-22T11:51:41;25.00;99.90
37340;DHT22;23223;51.006;7.610;2022-07-22T11:54:08;25.60;99.90
37340;DHT22;23223;51.006;7.610;2022-07-22T11:56:34;26.40;99.90
37340;DHT22;23223;51.006;7.610;2022-07-22T11:59:00;26.50;99.90
37340;DHT22;23223;51.006;7.610;2022-07-22T12:01:31;26.40;99.90
37340;DHT22;23223;51.006;7.610;2022-07-22T12:04:05;26.00;99.90
37340;DHT22;23223;51.006;7.610;2022-07-22T12:06:34;25.90;99.90
37340;DHT22;23223;51.006;7.610;2022-07-22T12:09:13;25.90;99.90
37340;DHT22;23223;51.006;7.610;2022-07-22T12:11:42;25.80;99.90
37340;DHT22;23223;51.006;7.610;2022-07-22T12:14:14;26.30;99.90
37340;DHT22;23223;51.006;7.610;2022-07-22T12:16:40;27.00;99.90
37340;DHT22;23223;51.006;7.610;2022-07-22T12:19:08;27.80;99.90
37340;DHT22;23223;51.006;7.610;2022-07-22T12:21:58;28.50;99.90
37340;DHT22;23223;51.006;7.610;2022-07-22T12:27:04;28.90;99.90
37340;DHT22;23223;51.006;7.610;2022-07-22T12:29:50;29.00;99.90
37340;DHT22;23223;51.006;7.610;2022-07-22T12:34:59;29.40;99.90
37340;DHT22;23223;51.006;7.610;2022-07-22T12:42:27;29.40;99.90
37340;DHT22;23223;51.006;7.610;2022-07-22T12:45:03;29.00;99.90
37340;DHT22;23223;51.006;7.610;2022-07-22T12:47:48;28.70;99.90
37340;DHT22;23223;51.006;7.610;2022-07-22T12:52:49;28.10;99.90
37340;DHT22;23223;51.006;7.610;2022-07-22T12:55:15;27.80;99.90
37340;DHT22;23223;51.006;7.610;2022-07-22T12:57:41;27.60;99.90
37340;DHT22;23223;51.006;7.610;2022-07-22T13:00:07;27.70;99.90
37340;DHT22;23223;51.006;7.610;2022-07-22T13:02:33;27.70;99.90
37340;DHT22;23223;51.006;7.610;2022-07-22T13:04:59;27.60;99.90
37340;DHT22;23223;51.006;7.610;2022-07-22T13:07:25;27.90;99.90
37340;DHT22;23223;51.006;7.610;2022-07-22T13:09:50;27.70;99.90
37340;DHT22;23223;51.006;7.610;2022-07-22T13:12:16;27.70;99.90
37340;DHT22;23223;51.006;7.610;2022-07-22T13:14:42;27.60;99.90
37340;DHT22;23223;51.006;7.610;2022-07-22T13:17:07;27.40;99.90
37340;DHT22;23223;51.006;7.610;2022-07-22T13:19:33;27.50;99.90
37340;DHT22;23223;51.006;7.610;2022-07-22T13:21:58;27.50;99.90
37340;DHT22;23223;51.006;7.610;2022-07-22T13:24:24;27.60;99.90
37340;DHT22;23223;51.006;7.610;2022-07-22T13:26:49;27.80;99.90
37340;DHT22;23223;51.006;7.610;2022-07-22T13:29:16;28.00;99.90
37340;DHT22;23223;51.006;7.610;2022-07-22T13:31:42;27.90;99.90
37340;DHT22;23223;51.006;7.610;2022-07-22T13:34:07;27.60;99.90
37340;DHT22;23223;51.006;7.610;2022-07-22T13:36:33;27.60;99.90
37340;DHT22;23223;51.006;7.610;2022-07-22T13:39:00;27.80;99.90
37340;DHT22;23223;51.006;7.610;2022-07-22T13:41:26;27.80;99.90
37340;DHT22;23223;51.006;7.610;2022-07-22T13:43:51;27.90;99.90
37340;DHT22;23223;51.006;7.610;2022-07-22T13:46:18;28.10;99.90
37340;DHT22;23223;51.006;7.610;2022-07-22T13:48:44;28.20;99.90
37340;DHT22;23223;51.006;7.610;2022-07-22T13:51:10;28.10;99.90
37340;DHT22;23223;51.006;7.610;2022-07-22T13:53:35;28.20;99.90
37340;DHT22;23223;51.006;7.610;2022-07-22T13:56:01;28.20;99.90
37340;DHT22;23223;51.006;7.610;2022-07-22T13:58:27;27.90;99.90
37340;DHT22;23223;51.006;7.610;2022-07-22T14:00:53;27.40;99.90
37340;DHT22;23223;51.006;7.610;2022-07-22T14:03:19;27.30;99.90
37340;DHT22;23223;51.006;7.610;2022-07-22T14:05:45;27.50;99.90
37340;DHT22;23223;51.006;7.610;2022-07-22T14:08:11;27.50;99.90
37340;DHT22;23223;51.006;7.610;2022-07-22T14:10:36;27.90;99.90
37340;DHT22;23223;51.006;7.610;2022-07-22T14:13:02;27.90;99.90
37340;DHT22;23223;51.006;7.610;2022-07-22T14:15:28;27.80;99.90
37340;DHT22;23223;51.006;7.610;2022-07-22T14:17:53;27.80;99.90
37340;DHT22;23223;51.006;7.610;2022-07-22T14:20:19;27.80;99.90
37340;DHT22;23223;51.006;7.610;2022-07-22T14:22:44;27.70;99.90
37340;DHT22;23223;51.006;7.610;2022-07-22T14:25:10;27.90;99.90
37340;DHT22;23223;51.006;7.610;2022-07-22T14:27:36;27.90;99.90
37340;DHT22;23223;51.006;7.610;2022-07-22T14:30:01;27.90;99.90
37340;DHT22;23223;51.006;7.610;2022-07-22T14:32:27;27.70;99.90
37340;DHT22;23223;51.006;7.610;2022-07-22T14:34:53;27.40;99.90
37340;DHT22;23223;51.006;7.610;2022-07-22T14:37:19;27.40;99.90
37340;DHT22;23223;51.006;7.610;2022-07-22T14:39:44;27.30;99.90
37340;DHT22;23223;51.006;7.610;2022-07-22T14:42:10;27.10;99.90
37340;DHT22;23223;51.006;7.610;2022-07-22T14:44:35;26.70;99.90
37340;DHT22;23223;51.006;7.610;2022-07-22T14:47:01;26.50;99.90
37340;DHT22;23223;51.006;7.610;2022-07-22T14:49:27;26.30;99.90
37340;DHT22;23223;51.006;7.610;2022-07-22T14:51:53;26.10;99.90
37340;DHT22;23223;51.006;7.610;2022-07-22T14:54:18;26.10;99.90
37340;DHT22;23223;51.006;7.610;2022-07-22T14:56:44;26.20;99.90
37340;DHT22;23223;51.006;7.610;2022-07-22T14:59:10;26.30;99.90
37340;DHT22;23223;51.006;7.610;2022-07-22T15:01:36;26.40;99.90
37340;DHT22;23223;51.006;7.610;2022-07-22T15:04:02;26.60;99.90
37340;DHT22;23223;51.006;7.610;2022-07-22T15:06:27;26.50;99.90
37340;DHT22;23223;51.006;7.610;2022-07-22T15:08:53;26.50;99.90
37340;DHT22;23223;51.006;7.610;2022-07-22T15:11:18;26.60;99.90
37340;DHT22;23223;51.006;7.610;2022-07-22T15:13:44;26.50;99.90
37340;DHT22;23223;51.006;7.610;2022-07-22T15:16:09;26.60;99.90
37340;DHT22;23223;51.006;7.610;2022-07-22T15:18:36;26.50;99.90
37340;DHT22;23223;51.006;7.610;2022-07-22T15:21:01;26.50;99.90
37340;DHT22;23223;51.006;7.610;2022-07-22T15:23:27;26.50;99.90
37340;DHT22;23223;51.006;7.610;2022-07-22T15:25:57;26.60;99.90
37340;DHT22;23223;51.006;7.610;2022-07-22T15:28:24;26.60;99.90
37340;DHT22;23223;51.006;7.610;2022-07-22T15:30:51;26.60;99.90
37340;DHT22;23223;51.006;7.610;2022-07-22T15:33:16;26.50;99.90
37340;DHT22;23223;51.006;7.610;2022-07-22T15:35:42;26.60;99.90
37340;DHT22;23223;51.006;7.610;2022-07-22T15:38:08;26.30;99.90
37340;DHT22;23223;51.006;7.610;2022-07-22T15:40:33;26.10;99.90
37340;DHT22;23223;51.006;7.610;2022-07-22T15:42:59;25.90;99.90
37340;DHT22;23223;51.006;7.610;2022-07-22T15:45:24;26.00;99.90
37340;DHT22;23223;51.006;7.610;2022-07-22T15:47:50;26.00;99.90
37340;DHT22;23223;51.006;7.610;2022-07-22T15:50:15;26.00;99.90
37340;DHT22;23223;51.006;7.610;2022-07-22T15:52:47;25.90;99.90